Terminal Aerodrome Forecast
Issued by NWS

Home | Current Version | Previous Version | Text Only | Print | Product List | Glossary On
Versions: 1 2 3 4 5 6 7 8 9 10 11 12 13 14 15 16 17 18 19 20 21 22
000
FTPA31 PHFO 230100 AAA
TAFITO
TAF AMD
PHTO 230107Z 2301/2324 10011KT P6SM VCSH SCT015 BKN030
      TEMPO 2301/2304 BKN015
     FM230400 VRB03KT P6SM VCSH SCT020 BKN035
      TEMPO 2304/2307 BKN020
     FM230700 24005KT P6SM VCSH BKN020
     FM232000 07008KT P6SM VCSH SCT025 SCT045=

USA.gov is the U.S. government's official web portal to all federal, state and local government web resources and services.